Time;durP1;ratioP1;P1;durP2;ratioP2;P2;SDS_P1;SDS_P2;PMS_P1;PMS_P2;Temp;Humidity;BMP_temperature;BMP_pressure;BME280_temperature;BME280_humidity;BME280_pressure;Samples;Min_cycle;Max_cycle;Signal;HPM_P1;HPM_P2
2022/12/02 00:01:12;;;;;;;119.03;52.90;;;;;;;;;;4984421;28;20042;-71
2022/12/02 00:03:38;;;;;;;117.72;52.70;;;;;;;;;;4981994;28;20107;-71
2022/12/02 00:06:03;;;;;;;120.57;53.05;;;;;;;;;;4983113;28;20072;-71
2022/12/02 00:08:30;;;;;;;118.97;52.08;;;;;;;;;;4983914;28;20056;-71
2022/12/02 00:10:57;;;;;;;121.30;53.08;;;;;;;;;;4986670;28;20060;-71
2022/12/02 00:13:39;;;;;;;118.20;52.83;;;;;;;;;;4999317;28;20037;-71
2022/12/02 00:16:05;;;;;;;120.10;52.25;;;;;;;;;;4978822;28;20073;-71
2022/12/02 00:18:30;;;;;;;110.28;50.63;;;;;;;;;;4984902;28;20034;-72
2022/12/02 00:20:56;;;;;;;123.35;54.92;;;;;;;;;;4981453;28;20057;-72
2022/12/02 00:23:22;;;;;;;121.82;54.58;;;;;;;;;;4982772;28;20881;-72
2022/12/02 00:25:50;;;;;;;117.80;53.40;;;;;;;;;;4982153;28;20123;-72
2022/12/02 00:28:15;;;;;;;120.88;53.53;;;;;;;;;;4983154;28;20057;-71
2022/12/02 00:30:41;;;;;;;120.20;53.88;;;;;;;;;;4983250;28;20076;-72
2022/12/02 00:33:07;;;;;;;120.45;54.13;;;;;;;;;;4983032;28;20081;-71
2022/12/02 00:35:32;;;;;;;121.95;54.03;;;;;;;;;;4983568;28;20470;-72
2022/12/02 00:37:58;;;;;;;121.90;54.00;;;;;;;;;;4966697;28;20041;-68
2022/12/02 00:40:26;;;;;;;122.18;54.70;;;;;;;;;;4983929;28;21068;-69
2022/12/02 00:42:51;;;;;;;120.03;54.90;;;;;;;;;;4978976;28;20055;-69
2022/12/02 00:48:03;;;;;;;131.63;55.30;;;;;;;;;;4982156;28;20950;-69
2022/12/02 00:50:29;;;;;;;131.00;55.28;;;;;;;;;;4984498;28;20037;-68
2022/12/02 00:52:55;;;;;;;129.48;56.90;;;;;;;;;;4980102;28;20140;-69
2022/12/02 00:55:21;;;;;;;117.90;53.65;;;;;;;;;;4981652;28;20147;-68
2022/12/02 00:57:47;;;;;;;118.30;52.88;;;;;;;;;;4982772;28;20044;-69
2022/12/02 01:00:13;;;;;;;122.28;52.72;;;;;;;;;;4982856;28;20045;-69
2022/12/02 01:02:41;;;;;;;122.22;53.42;;;;;;;;;;4966302;28;20277;-69
2022/12/02 01:05:06;;;;;;;121.43;54.28;;;;;;;;;;4981673;28;20038;-69
2022/12/02 01:07:31;;;;;;;121.47;51.65;;;;;;;;;;4980688;28;20045;-68
2022/12/02 01:09:57;;;;;;;125.50;53.40;;;;;;;;;;4982476;28;20041;-69
2022/12/02 01:12:22;;;;;;;124.30;52.75;;;;;;;;;;4982758;28;20033;-68
2022/12/02 01:14:50;;;;;;;132.15;54.08;;;;;;;;;;4981488;28;20077;-68
2022/12/02 01:17:15;;;;;;;124.10;51.85;;;;;;;;;;4979660;28;20124;-68
2022/12/02 01:19:41;;;;;;;122.75;53.08;;;;;;;;;;4982321;28;20102;-69
2022/12/02 01:22:06;;;;;;;122.43;51.85;;;;;;;;;;4981198;28;20060;-69
2022/12/02 01:24:31;;;;;;;124.97;54.83;;;;;;;;;;4981186;28;20045;-68
2022/12/02 01:26:57;;;;;;;130.32;51.83;;;;;;;;;;4993630;28;20136;-69
2022/12/02 01:29:23;;;;;;;122.00;50.83;;;;;;;;;;4999226;28;20036;-69
2022/12/02 01:31:48;;;;;;;119.13;51.65;;;;;;;;;;4982041;28;20129;-69
2022/12/02 01:34:15;;;;;;;121.60;52.00;;;;;;;;;;4982931;28;20099;-68
2022/12/02 01:36:41;;;;;;;123.30;52.08;;;;;;;;;;4981567;28;20713;-69
2022/12/02 01:39:06;;;;;;;126.30;51.85;;;;;;;;;;4981658;28;20037;-68
2022/12/02 01:41:31;;;;;;;123.78;51.80;;;;;;;;;;4984091;28;20037;-68
2022/12/02 01:43:57;;;;;;;128.75;53.35;;;;;;;;;;4983623;28;20798;-68
2022/12/02 01:46:22;;;;;;;127.22;50.88;;;;;;;;;;4981161;28;20038;-68
2022/12/02 01:48:48;;;;;;;129.05;52.13;;;;;;;;;;4966317;28;20033;-68
2022/12/02 01:51:13;;;;;;;125.25;51.40;;;;;;;;;;4982371;28;20038;-69
2022/12/02 01:53:39;;;;;;;127.38;52.40;;;;;;;;;;4983163;28;20816;-68
2022/12/02 01:56:04;;;;;;;137.57;52.22;;;;;;;;;;4982479;28;20085;-68
2022/12/02 01:58:30;;;;;;;126.22;50.78;;;;;;;;;;4999253;28;20038;-68
2022/12/02 02:00:56;;;;;;;126.50;50.70;;;;;;;;;;5017677;28;20037;-68
2022/12/02 02:03:21;;;;;;;123.00;49.72;;;;;;;;;;4986440;28;20038;-68
2022/12/02 02:05:46;;;;;;;125.70;49.80;;;;;;;;;;4986717;28;20041;-66
2022/12/02 02:08:12;;;;;;;137.80;53.20;;;;;;;;;;4984859;28;20044;-67
2022/12/02 02:10:39;;;;;;;129.82;52.08;;;;;;;;;;4984526;28;20041;-66
2022/12/02 02:13:04;;;;;;;126.20;51.17;;;;;;;;;;4986649;28;20034;-67
2022/12/02 02:15:30;;;;;;;130.82;51.03;;;;;;;;;;4985347;28;20030;-67
2022/12/02 02:17:58;;;;;;;132.23;52.17;;;;;;;;;;4983882;28;20045;-67
2022/12/02 02:20:24;;;;;;;124.88;51.08;;;;;;;;;;4986000;28;20066;-67
2022/12/02 02:22:53;;;;;;;127.55;51.28;;;;;;;;;;4983253;28;20037;-66
2022/12/02 02:25:19;;;;;;;127.20;51.95;;;;;;;;;;4983011;28;20041;-67
2022/12/02 02:27:52;;;;;;;128.30;52.13;;;;;;;;;;4985300;28;20707;-67
2022/12/02 02:30:18;;;;;;;120.65;49.15;;;;;;;;;;4986751;28;20041;-67
2022/12/02 02:32:43;;;;;;;129.20;52.88;;;;;;;;;;4986559;28;20103;-67
2022/12/02 02:35:08;;;;;;;122.82;51.15;;;;;;;;;;4984473;28;20785;-67
2022/12/02 02:37:34;;;;;;;135.52;53.40;;;;;;;;;;4983369;28;20048;-67
2022/12/02 02:40:00;;;;;;;130.63;52.58;;;;;;;;;;4983931;28;20045;-67
2022/12/02 02:42:26;;;;;;;126.72;51.13;;;;;;;;;;4986477;28;20038;-67
2022/12/02 02:44:51;;;;;;;125.90;51.47;;;;;;;;;;4981550;28;21070;-67
2022/12/02 02:47:16;;;;;;;127.78;53.20;;;;;;;;;;4986841;28;20284;-67
2022/12/02 02:49:42;;;;;;;119.18;48.63;;;;;;;;;;4984162;28;20042;-67
2022/12/02 02:52:07;;;;;;;123.45;49.08;;;;;;;;;;4982586;28;20091;-67
2022/12/02 02:54:33;;;;;;;117.05;48.60;;;;;;;;;;5014519;28;20089;-68
2022/12/02 02:56:58;;;;;;;121.35;48.45;;;;;;;;;;4979864;28;20037;-68
2022/12/02 02:59:24;;;;;;;117.22;47.13;;;;;;;;;;4983660;28;20793;-67
2022/12/02 03:01:49;;;;;;;124.18;48.65;;;;;;;;;;4985102;28;22198;-67
2022/12/02 03:04:16;;;;;;;113.50;46.50;;;;;;;;;;4980155;28;20760;-68
2022/12/02 03:06:42;;;;;;;111.10;46.65;;;;;;;;;;5014274;28;20041;-67
2022/12/02 03:09:09;;;;;;;115.15;46.65;;;;;;;;;;4984372;28;20104;-67
2022/12/02 03:11:38;;;;;;;112.35;45.78;;;;;;;;;;4984963;28;20038;-68
2022/12/02 03:14:04;;;;;;;109.13;46.00;;;;;;;;;;4984559;28;20041;-67
2022/12/02 03:16:30;;;;;;;112.75;46.05;;;;;;;;;;4978572;28;20041;-67
2022/12/02 03:18:56;;;;;;;117.25;44.58;;;;;;;;;;4985130;28;20037;-67
2022/12/02 03:21:24;;;;;;;109.18;42.63;;;;;;;;;;4984338;28;20048;-67
2022/12/02 03:23:51;;;;;;;100.25;42.10;;;;;;;;;;5014109;28;20046;-67
2022/12/02 03:26:17;;;;;;;109.43;42.58;;;;;;;;;;4977406;28;20064;-67
2022/12/02 03:28:45;;;;;;;106.55;43.55;;;;;;;;;;4983948;28;20037;-67
2022/12/02 03:31:13;;;;;;;106.05;43.38;;;;;;;;;;4977654;28;20068;-67
2022/12/02 03:33:39;;;;;;;100.90;42.13;;;;;;;;;;4983534;28;20500;-67
2022/12/02 03:36:06;;;;;;;98.00;40.75;;;;;;;;;;4983904;28;20111;-67
2022/12/02 03:38:32;;;;;;;102.43;41.28;;;;;;;;;;4980573;28;20041;-67
2022/12/02 03:40:59;;;;;;;102.13;43.05;;;;;;;;;;4982789;28;20936;-67
2022/12/02 03:43:27;;;;;;;104.00;41.60;;;;;;;;;;4984020;28;20047;-67
2022/12/02 03:45:52;;;;;;;103.15;42.25;;;;;;;;;;4978434;28;20041;-67
2022/12/02 03:48:20;;;;;;;102.47;41.90;;;;;;;;;;4981794;28;20045;-67
2022/12/02 03:50:46;;;;;;;106.82;43.15;;;;;;;;;;4983135;28;20041;-67
2022/12/02 03:53:11;;;;;;;103.22;41.78;;;;;;;;;;4983317;28;20762;-67
2022/12/02 03:55:37;;;;;;;98.40;40.22;;;;;;;;;;4983242;28;20034;-67
2022/12/02 03:58:04;;;;;;;93.80;40.05;;;;;;;;;;4978837;28;20033;-67
2022/12/02 04:00:30;;;;;;;101.10;40.83;;;;;;;;;;4982548;28;20089;-67
2022/12/02 04:02:57;;;;;;;105.57;42.30;;;;;;;;;;4983031;28;20029;-67
2022/12/02 04:05:22;;;;;;;103.85;41.88;;;;;;;;;;4982505;28;20030;-67
2022/12/02 04:07:48;;;;;;;101.15;41.03;;;;;;;;;;4975115;28;20076;-67
2022/12/02 04:10:15;;;;;;;97.40;41.50;;;;;;;;;;4979944;28;20075;-69
2022/12/02 04:12:40;;;;;;;102.53;40.80;;;;;;;;;;4983356;28;20767;-67
2022/12/02 04:15:06;;;;;;;103.47;41.92;;;;;;;;;;4982016;28;20071;-67
2022/12/02 04:17:31;;;;;;;108.53;41.40;;;;;;;;;;4983055;28;20753;-67
2022/12/02 04:19:56;;;;;;;102.13;42.00;;;;;;;;;;4995639;28;20776;-66
2022/12/02 04:22:22;;;;;;;100.28;41.85;;;;;;;;;;4984519;28;20046;-67
2022/12/02 04:24:47;;;;;;;108.97;41.35;;;;;;;;;;4979901;28;20144;-67
2022/12/02 04:27:13;;;;;;;102.80;41.53;;;;;;;;;;4981942;28;20074;-67
2022/12/02 04:29:39;;;;;;;100.80;39.95;;;;;;;;;;4980524;28;20909;-66
2022/12/02 04:32:04;;;;;;;102.90;40.50;;;;;;;;;;4982232;28;20124;-66
2022/12/02 04:34:30;;;;;;;100.70;40.97;;;;;;;;;;4981026;28;20045;-68
2022/12/02 04:36:55;;;;;;;96.53;39.42;;;;;;;;;;4980439;28;20044;-68
2022/12/02 04:39:25;;;;;;;95.18;38.72;;;;;;;;;;4983582;28;21027;-68
2022/12/02 04:41:50;;;;;;;88.57;37.38;;;;;;;;;;4981530;28;20037;-68
2022/12/02 04:44:18;;;;;;;87.15;36.38;;;;;;;;;;4981573;28;20140;-68
2022/12/02 04:46:43;;;;;;;85.53;36.33;;;;;;;;;;4982665;28;20098;-69
2022/12/02 04:49:08;;;;;;;80.97;35.42;;;;;;;;;;4980100;28;20030;-68
2022/12/02 04:51:34;;;;;;;83.70;35.13;;;;;;;;;;4976667;28;20038;-68
2022/12/02 04:53:59;;;;;;;76.95;34.08;;;;;;;;;;4979307;28;20053;-68
2022/12/02 04:56:27;;;;;;;82.40;34.72;;;;;;;;;;4976787;28;20098;-66
2022/12/02 04:58:52;;;;;;;79.47;34.15;;;;;;;;;;4976808;28;21145;-68
2022/12/02 05:01:18;;;;;;;83.68;33.63;;;;;;;;;;4978915;28;20037;-68
2022/12/02 05:03:43;;;;;;;80.32;34.67;;;;;;;;;;4980843;28;21951;-68
2022/12/02 05:06:09;;;;;;;78.40;32.92;;;;;;;;;;4979477;28;20115;-69
2022/12/02 05:08:34;;;;;;;82.35;33.95;;;;;;;;;;4975800;28;20045;-68
2022/12/02 05:11:01;;;;;;;74.97;32.30;;;;;;;;;;4980950;28;20200;-68
2022/12/02 05:13:29;;;;;;;80.90;34.72;;;;;;;;;;4965441;28;20871;-66
2022/12/02 05:15:54;;;;;;;81.40;33.83;;;;;;;;;;4979426;28;20048;-66
2022/12/02 05:18:20;;;;;;;80.22;33.67;;;;;;;;;;4980921;28;20038;-66
2022/12/02 05:20:45;;;;;;;79.32;32.47;;;;;;;;;;4977238;28;20037;-66
2022/12/02 05:23:12;;;;;;;78.57;34.05;;;;;;;;;;5009624;28;20577;-68
2022/12/02 05:25:37;;;;;;;76.32;32.88;;;;;;;;;;4979418;28;20037;-68
2022/12/02 05:28:03;;;;;;;80.55;31.55;;;;;;;;;;4982214;28;20196;-68
2022/12/02 05:30:30;;;;;;;82.07;34.40;;;;;;;;;;4982219;28;20033;-68
2022/12/02 05:32:56;;;;;;;83.68;31.90;;;;;;;;;;4984287;28;20038;-67
2022/12/02 05:35:21;;;;;;;82.68;32.67;;;;;;;;;;4999179;28;20052;-67
2022/12/02 05:37:47;;;;;;;76.07;32.10;;;;;;;;;;4985774;28;20041;-67
2022/12/02 05:40:12;;;;;;;77.72;32.53;;;;;;;;;;5016422;28;20034;-67
2022/12/02 05:42:38;;;;;;;71.70;31.08;;;;;;;;;;4984537;28;20141;-68
2022/12/02 05:45:14;;;;;;;73.25;30.23;;;;;;;;;;4974735;28;20749;-67
2022/12/02 05:47:40;;;;;;;78.38;32.15;;;;;;;;;;4991849;28;20048;-67
2022/12/02 05:50:06;;;;;;;82.78;33.05;;;;;;;;;;4993563;28;20041;-67
2022/12/02 05:52:32;;;;;;;79.18;32.00;;;;;;;;;;4997874;28;20042;-67
2022/12/02 05:55:00;;;;;;;70.03;30.38;;;;;;;;;;4983510;28;20831;-67
2022/12/02 05:57:27;;;;;;;77.97;29.92;;;;;;;;;;4985443;28;20114;-66
2022/12/02 06:00:21;;;;;;;81.40;32.03;;;;;;;;;;4985285;28;20129;-68
2022/12/02 06:02:54;;;;;;;78.07;30.85;;;;;;;;;;4983108;28;20429;-68
2022/12/02 06:05:20;;;;;;;76.63;30.98;;;;;;;;;;5011836;28;20172;-68
2022/12/02 06:07:49;;;;;;;80.13;31.98;;;;;;;;;;4979020;28;20059;-68
2022/12/02 06:10:20;;;;;;;76.05;31.63;;;;;;;;;;5009207;28;20131;-68
2022/12/02 06:12:46;;;;;;;70.35;30.33;;;;;;;;;;5014803;28;20682;-68
2022/12/02 06:15:15;;;;;;;71.80;31.15;;;;;;;;;;4983012;28;20038;-68
2022/12/02 06:17:41;;;;;;;73.57;31.67;;;;;;;;;;5014059;28;20782;-68
2022/12/02 06:20:12;;;;;;;75.50;29.80;;;;;;;;;;4981619;28;20038;-67
2022/12/02 06:22:37;;;;;;;69.80;29.23;;;;;;;;;;4979049;28;20042;-68
2022/12/02 06:25:05;;;;;;;74.97;30.77;;;;;;;;;;4981831;28;20060;-68
2022/12/02 06:27:32;;;;;;;67.50;29.15;;;;;;;;;;4982259;28;20029;-65
2022/12/02 06:29:59;;;;;;;64.38;28.00;;;;;;;;;;4983899;28;20033;-68
2022/12/02 06:32:32;;;;;;;67.03;28.63;;;;;;;;;;4985681;28;20040;-67
2022/12/02 06:34:57;;;;;;;;;;;;;;;;;;4985068;28;20037;-68
2022/12/02 06:37:29;;;;;;;68.90;28.77;;;;;;;;;;5012962;28;19995;-67
2022/12/02 06:39:56;;;;;;;64.68;28.45;;;;;;;;;;4983465;28;20065;-67
2022/12/02 06:42:33;;;;;;;68.68;28.85;;;;;;;;;;4978739;28;23261;-68
2022/12/02 06:45:06;;;;;;;68.45;28.58;;;;;;;;;;4976460;28;20135;-68
2022/12/02 06:47:32;;;;;;;66.38;28.33;;;;;;;;;;4984080;28;20556;-68
2022/12/02 06:50:17;;;;;;;69.82;29.40;;;;;;;;;;4981705;28;20057;-67
2022/12/02 06:52:45;;;;;;;68.95;29.13;;;;;;;;;;4977104;28;20913;-68
2022/12/02 06:55:29;;;;;;;64.70;28.60;;;;;;;;;;4981316;28;20041;-68
2022/12/02 06:57:56;;;;;;;65.57;28.25;;;;;;;;;;4978692;28;20040;-66
2022/12/02 07:00:21;;;;;;;65.55;27.45;;;;;;;;;;4989582;28;20079;-66
2022/12/02 07:02:47;;;;;;;66.60;27.48;;;;;;;;;;4979457;28;20038;-66
2022/12/02 07:05:20;;;;;;;66.97;27.65;;;;;;;;;;4983508;28;20068;-66
2022/12/02 07:07:47;;;;;;;60.25;26.45;;;;;;;;;;4980405;28;20072;-67
2022/12/02 07:10:18;;;;;;;64.47;27.05;;;;;;;;;;4982261;28;20038;-67
2022/12/02 07:12:44;;;;;;;61.92;26.33;;;;;;;;;;4968159;28;21115;-68
2022/12/02 07:15:18;;;;;;;61.70;26.02;;;;;;;;;;4976368;28;20036;-67
2022/12/02 07:17:43;;;;;;;61.25;27.40;;;;;;;;;;4981335;28;20115;-67
2022/12/02 07:20:10;;;;;;;57.25;24.48;;;;;;;;;;4981583;28;20734;-67
2022/12/02 07:22:39;;;;;;;54.20;24.60;;;;;;;;;;4979715;28;20052;-68
2022/12/02 07:25:23;;;;;;;54.25;24.95;;;;;;;;;;4984327;28;20045;-68
2022/12/02 07:27:52;;;;;;;51.00;22.38;;;;;;;;;;4978317;28;20037;-68
2022/12/02 07:30:29;;;;;;;49.58;23.00;;;;;;;;;;4984482;28;20041;-69
2022/12/02 07:32:58;;;;;;;53.13;24.25;;;;;;;;;;4994728;28;21078;-65
2022/12/02 07:35:24;;;;;;;54.75;25.08;;;;;;;;;;4996578;28;20033;-68
2022/12/02 07:37:49;;;;;;;61.63;26.40;;;;;;;;;;4979625;28;20072;-66
2022/12/02 07:40:15;;;;;;;57.55;24.17;;;;;;;;;;4980847;28;20041;-66
2022/12/02 07:42:41;;;;;;;57.80;24.38;;;;;;;;;;4978446;28;20072;-65
2022/12/02 07:45:07;;;;;;;52.97;23.58;;;;;;;;;;4979904;28;20060;-65
2022/12/02 07:47:33;;;;;;;55.65;22.58;;;;;;;;;;4977792;28;20037;-65
2022/12/02 07:50:00;;;;;;;58.47;23.08;;;;;;;;;;4982482;28;20689;-65
2022/12/02 07:52:26;;;;;;;56.58;23.08;;;;;;;;;;4980635;28;20467;-65
2022/12/02 07:54:53;;;;;;;65.88;22.23;;;;;;;;;;4978392;28;21815;-65
2022/12/02 07:57:18;;;;;;;51.63;21.35;;;;;;;;;;4981447;28;20486;-65
2022/12/02 07:59:44;;;;;;;59.92;23.10;;;;;;;;;;4980806;28;20068;-65
2022/12/02 08:02:09;;;;;;;55.08;22.75;;;;;;;;;;4978719;28;20288;-65
2022/12/02 08:04:34;;;;;;;54.42;23.15;;;;;;;;;;4979233;28;20091;-65
2022/12/02 08:07:00;;;;;;;51.45;21.58;;;;;;;;;;4979468;28;20091;-65
2022/12/02 08:09:25;;;;;;;52.85;21.55;;;;;;;;;;5012775;28;20041;-65
2022/12/02 08:11:50;;;;;;;50.25;23.00;;;;;;;;;;4979663;28;20107;-65
2022/12/02 08:14:15;;;;;;;55.38;22.48;;;;;;;;;;4976869;28;20258;-65
2022/12/02 08:16:41;;;;;;;56.90;22.80;;;;;;;;;;4982113;28;20751;-65
2022/12/02 08:19:06;;;;;;;51.28;23.23;;;;;;;;;;4979941;28;20049;-65
2022/12/02 08:21:32;;;;;;;51.47;22.90;;;;;;;;;;4977798;28;20041;-65
2022/12/02 08:23:57;;;;;;;52.45;23.17;;;;;;;;;;4981735;28;20083;-65
2022/12/02 08:26:23;;;;;;;53.05;23.48;;;;;;;;;;4980653;28;20124;-66
2022/12/02 08:28:48;;;;;;;59.53;23.38;;;;;;;;;;4976715;28;20263;-64
2022/12/02 08:31:13;;;;;;;54.17;22.77;;;;;;;;;;4979698;28;20053;-64
2022/12/02 08:33:38;;;;;;;51.00;22.30;;;;;;;;;;4994268;28;20417;-64
2022/12/02 08:36:04;;;;;;;58.83;23.98;;;;;;;;;;4981510;28;20041;-66
2022/12/02 08:38:29;;;;;;;66.65;24.25;;;;;;;;;;4961531;28;20836;-67
2022/12/02 08:40:55;;;;;;;54.42;24.05;;;;;;;;;;4979709;28;20049;-64
2022/12/02 08:43:20;;;;;;;54.65;24.23;;;;;;;;;;4964651;28;20046;-66
2022/12/02 08:45:45;;;;;;;57.22;24.08;;;;;;;;;;4980281;28;20022;-66
2022/12/02 08:48:11;;;;;;;59.53;24.20;;;;;;;;;;4982253;28;20224;-66
2022/12/02 08:50:37;;;;;;;59.42;24.42;;;;;;;;;;4977874;28;20651;-66
2022/12/02 08:53:02;;;;;;;55.90;24.45;;;;;;;;;;5009877;28;20038;-66
2022/12/02 08:55:28;;;;;;;63.83;24.75;;;;;;;;;;4979834;28;20509;-66
2022/12/02 08:57:56;;;;;;;62.85;24.38;;;;;;;;;;4994100;28;20479;-66
2022/12/02 09:00:21;;;;;;;56.90;24.67;;;;;;;;;;4979578;28;20310;-65
2022/12/02 09:02:47;;;;;;;57.88;24.58;;;;;;;;;;4977553;28;20115;-66
2022/12/02 09:05:12;;;;;;;61.65;24.55;;;;;;;;;;4975400;28;20048;-66
2022/12/02 09:07:38;;;;;;;65.28;25.52;;;;;;;;;;4971609;28;20232;-66
2022/12/02 09:10:05;;;;;;;65.72;26.42;;;;;;;;;;4976179;28;20548;-66
2022/12/02 09:12:30;;;;;;;68.82;27.65;;;;;;;;;;4975297;28;20210;-66
2022/12/02 09:14:56;;;;;;;67.55;27.67;;;;;;;;;;4976699;28;20056;-65
2022/12/02 09:17:21;;;;;;;64.18;27.48;;;;;;;;;;4977521;28;20042;-66
2022/12/02 09:19:46;;;;;;;66.45;27.15;;;;;;;;;;4983548;28;20099;-65
2022/12/02 09:22:12;;;;;;;71.00;28.10;;;;;;;;;;4978843;28;20067;-66
2022/12/02 09:24:37;;;;;;;71.65;28.52;;;;;;;;;;4979294;28;20153;-65
2022/12/02 09:27:02;;;;;;;74.43;28.98;;;;;;;;;;4992614;28;20641;-67
2022/12/02 09:29:28;;;;;;;80.78;30.58;;;;;;;;;;4973457;28;20402;-65
2022/12/02 09:31:56;;;;;;;75.22;30.70;;;;;;;;;;4960331;28;20434;-65
2022/12/02 09:34:21;;;;;;;74.60;27.77;;;;;;;;;;4977678;28;20869;-69
2022/12/02 09:36:47;;;;;;;75.60;29.67;;;;;;;;;;5007035;28;22022;-69
2022/12/02 09:39:15;;;;;;;73.03;29.73;;;;;;;;;;4976284;28;20029;-66
2022/12/02 09:41:42;;;;;;;76.20;30.33;;;;;;;;;;4978906;28;20099;-66
2022/12/02 09:44:08;;;;;;;74.03;28.17;;;;;;;;;;4977533;28;20064;-66
2022/12/02 09:46:34;;;;;;;70.50;27.95;;;;;;;;;;4980552;28;20041;-66
2022/12/02 09:49:01;;;;;;;73.93;30.02;;;;;;;;;;4996654;28;20044;-67
2022/12/02 09:51:29;;;;;;;77.55;30.60;;;;;;;;;;4997323;28;20033;-66
2022/12/02 09:53:55;;;;;;;74.90;27.73;;;;;;;;;;4998918;28;20045;-66
2022/12/02 09:56:21;;;;;;;75.13;28.17;;;;;;;;;;4996960;28;20045;-66
2022/12/02 09:58:50;;;;;;;74.85;28.92;;;;;;;;;;4979254;28;20418;-66
2022/12/02 10:01:15;;;;;;;69.43;28.13;;;;;;;;;;4972578;28;20160;-66
2022/12/02 10:03:41;;;;;;;78.00;29.45;;;;;;;;;;4979808;28;20045;-66
2022/12/02 10:06:14;;;;;;;80.78;29.63;;;;;;;;;;4973006;28;20045;-66
2022/12/02 10:08:39;;;;;;;80.78;29.90;;;;;;;;;;4984620;28;20040;-67
2022/12/02 10:11:05;;;;;;;79.70;29.35;;;;;;;;;;4992544;28;20266;-65
2022/12/02 10:13:31;;;;;;;79.15;30.10;;;;;;;;;;4961985;28;20120;-65
2022/12/02 10:15:58;;;;;;;74.45;29.52;;;;;;;;;;4977205;28;20038;-65
2022/12/02 10:18:25;;;;;;;82.55;31.23;;;;;;;;;;4991717;28;20691;-66
2022/12/02 10:20:50;;;;;;;77.57;29.83;;;;;;;;;;4980017;28;20302;-66
2022/12/02 10:23:20;;;;;;;66.35;26.20;;;;;;;;;;4978528;28;20041;-66
2022/12/02 10:26:09;;;;;;;65.35;26.10;;;;;;;;;;4997176;28;20063;-66
2022/12/02 10:28:35;;;;;;;60.53;24.05;;;;;;;;;;4996894;28;20124;-66
2022/12/02 10:31:06;;;;;;;61.78;25.15;;;;;;;;;;4996613;28;20029;-66
2022/12/02 10:33:33;;;;;;;61.67;24.25;;;;;;;;;;4994630;28;20435;-66
2022/12/02 10:35:59;;;;;;;61.80;25.50;;;;;;;;;;4981072;28;20044;-66
2022/12/02 10:38:31;;;;;;;57.55;24.98;;;;;;;;;;4976125;28;20044;-66
2022/12/02 10:41:11;;;;;;;60.75;23.70;;;;;;;;;;5008244;28;20366;-66
2022/12/02 10:43:37;;;;;;;60.42;25.00;;;;;;;;;;5001592;28;20048;-65
2022/12/02 10:46:02;;;;;;;62.35;24.50;;;;;;;;;;4985118;28;21089;-65
2022/12/02 10:48:27;;;;;;;52.58;22.17;;;;;;;;;;5001715;28;20033;-65
2022/12/02 10:50:55;;;;;;;52.13;21.33;;;;;;;;;;5003212;28;20125;-65
2022/12/02 10:53:21;;;;;;;46.80;21.33;;;;;;;;;;5000183;28;20055;-64
2022/12/02 10:55:46;;;;;;;50.35;22.10;;;;;;;;;;5032332;28;20032;-65
2022/12/02 10:58:14;;;;;;;50.40;21.42;;;;;;;;;;4994808;28;20029;-66
2022/12/02 11:00:40;;;;;;;47.83;21.85;;;;;;;;;;4981501;28;20049;-65
2022/12/02 11:03:05;;;;;;;47.53;21.13;;;;;;;;;;4981214;28;20034;-66
2022/12/02 11:05:34;;;;;;;46.63;21.65;;;;;;;;;;4979044;28;20136;-65
2022/12/02 11:08:02;;;;;;;46.63;21.20;;;;;;;;;;4979515;28;21005;-65
2022/12/02 11:10:36;;;;;;;51.67;22.50;;;;;;;;;;4983642;28;20044;-64
2022/12/02 11:13:02;;;;;;;53.90;22.63;;;;;;;;;;4983767;28;20561;-65
2022/12/02 11:15:34;;;;;;;52.05;23.17;;;;;;;;;;4985279;28;20034;-67
2022/12/02 11:17:59;;;;;;;52.30;22.77;;;;;;;;;;4983391;28;20132;-68
2022/12/02 11:20:38;;;;;;;56.60;24.92;;;;;;;;;;4984667;28;21504;-67
2022/12/02 11:23:07;;;;;;;53.03;24.67;;;;;;;;;;4983194;28;20052;-67
2022/12/02 11:25:41;;;;;;;61.83;25.60;;;;;;;;;;4984284;28;20073;-68
2022/12/02 11:28:16;;;;;;;55.85;24.33;;;;;;;;;;4980733;28;20123;-68
2022/12/02 11:30:47;;;;;;;54.65;24.30;;;;;;;;;;4980289;28;20043;-67
2022/12/02 11:33:13;;;;;;;53.58;24.73;;;;;;;;;;4983361;28;20983;-65
2022/12/02 11:36:00;;;;;;;51.85;23.98;;;;;;;;;;4989808;28;20224;-68
2022/12/02 11:38:25;;;;;;;50.63;23.75;;;;;;;;;;4981893;28;20038;-66
2022/12/02 11:40:50;;;;;;;55.15;25.10;;;;;;;;;;4981736;28;20124;-65
2022/12/02 11:43:34;;;;;;;58.17;24.95;;;;;;;;;;4977072;28;20424;-65
2022/12/02 11:45:59;;;;;;;58.50;25.73;;;;;;;;;;4971794;28;20156;-66
2022/12/02 11:48:25;;;;;;;52.03;24.08;;;;;;;;;;4981987;28;20893;-66
2022/12/02 11:50:53;;;;;;;58.75;26.73;;;;;;;;;;4995291;28;20524;-65
2022/12/02 11:53:21;;;;;;;53.08;25.77;;;;;;;;;;4977327;28;20832;-66
2022/12/02 11:55:51;;;;;;;59.45;25.80;;;;;;;;;;4977733;28;20033;-66
2022/12/02 11:58:22;;;;;;;55.05;26.52;;;;;;;;;;5010249;28;20030;-65
2022/12/02 12:01:01;;;;;;;54.10;25.58;;;;;;;;;;4981744;28;20040;-67
2022/12/02 12:03:28;;;;;;;58.47;25.38;;;;;;;;;;4972395;28;20048;-66
2022/12/02 12:06:10;;;;;;;53.13;25.40;;;;;;;;;;4981856;28;20021;-67
2022/12/02 12:08:37;;;;;;;52.28;23.35;;;;;;;;;;4976941;28;20101;-66
2022/12/02 12:11:24;;;;;;;55.97;24.98;;;;;;;;;;4977806;28;20038;-66
2022/12/02 12:13:57;;;;;;;52.05;23.50;;;;;;;;;;4973057;28;20115;-66
2022/12/02 12:16:25;;;;;;;46.15;22.40;;;;;;;;;;4978858;28;20026;-69
2022/12/02 12:18:51;;;;;;;47.97;22.02;;;;;;;;;;5006954;28;20199;-66
2022/12/02 12:21:32;;;;;;;44.47;20.10;;;;;;;;;;4975405;28;20069;-65
2022/12/02 12:26:41;;;;;;;46.03;20.50;;;;;;;;;;4977428;28;20509;-67
2022/12/02 12:29:07;;;;;;;51.83;20.15;;;;;;;;;;4973906;28;20034;-67
2022/12/02 12:31:32;;;;;;;45.63;20.38;;;;;;;;;;4977274;28;20052;-65
2022/12/02 12:33:58;;;;;;;51.70;21.17;;;;;;;;;;4978386;28;20038;-65
2022/12/02 12:36:23;;;;;;;48.40;20.05;;;;;;;;;;4976438;28;20048;-66
2022/12/02 12:38:48;;;;;;;51.03;20.63;;;;;;;;;;4975213;28;20408;-67
2022/12/02 12:41:14;;;;;;;44.53;19.52;;;;;;;;;;4972464;28;20083;-67
2022/12/02 12:43:40;;;;;;;49.92;20.77;;;;;;;;;;4957178;28;20577;-64
2022/12/02 12:46:05;;;;;;;49.80;21.42;;;;;;;;;;4975993;28;20143;-66
2022/12/02 12:48:30;;;;;;;47.42;20.55;;;;;;;;;;4980158;28;20030;-65
2022/12/02 12:50:56;;;;;;;48.63;20.23;;;;;;;;;;4977661;28;20171;-65
2022/12/02 12:53:21;;;;;;;46.28;19.67;;;;;;;;;;4992356;28;20159;-65
2022/12/02 12:55:47;;;;;;;46.20;19.75;;;;;;;;;;4977024;28;20041;-65
2022/12/02 12:58:15;;;;;;;41.00;19.38;;;;;;;;;;4977378;28;20179;-65
2022/12/02 13:00:40;;;;;;;43.92;18.17;;;;;;;;;;4975637;28;20569;-66
2022/12/02 13:03:05;;;;;;;38.67;18.27;;;;;;;;;;4970829;28;20045;-65
2022/12/02 13:05:31;;;;;;;40.80;18.85;;;;;;;;;;4980542;28;20049;-67
2022/12/02 13:07:56;;;;;;;38.85;17.83;;;;;;;;;;4996343;28;20037;-65
2022/12/02 13:10:22;;;;;;;42.00;18.83;;;;;;;;;;4991673;28;20055;-66
2022/12/02 13:12:48;;;;;;;41.42;17.70;;;;;;;;;;4995774;28;20091;-64
2022/12/02 13:15:13;;;;;;;40.75;18.60;;;;;;;;;;5005675;28;20254;-66
2022/12/02 13:17:39;;;;;;;40.10;17.73;;;;;;;;;;4988454;28;20041;-66
2022/12/02 13:20:04;;;;;;;35.22;15.90;;;;;;;;;;4976870;28;20496;-68
2022/12/02 13:22:30;;;;;;;39.38;17.20;;;;;;;;;;4992479;28;21066;-66
2022/12/02 13:24:56;;;;;;;38.70;18.33;;;;;;;;;;4981297;28;20045;-65
2022/12/02 13:27:21;;;;;;;44.90;19.02;;;;;;;;;;4974710;28;20857;-64
2022/12/02 13:29:47;;;;;;;39.72;17.58;;;;;;;;;;4970272;28;20036;-67
2022/12/02 13:32:13;;;;;;;44.63;19.63;;;;;;;;;;4994644;28;20133;-66
2022/12/02 13:34:39;;;;;;;45.33;19.15;;;;;;;;;;4973740;28;20140;-66
2022/12/02 13:37:05;;;;;;;41.60;17.80;;;;;;;;;;4971654;28;20592;-66
2022/12/02 13:39:30;;;;;;;38.63;17.77;;;;;;;;;;4975143;28;20034;-66
2022/12/02 13:41:56;;;;;;;43.00;18.20;;;;;;;;;;4973778;28;20033;-66
2022/12/02 13:44:23;;;;;;;37.97;17.55;;;;;;;;;;4977693;28;20069;-67
2022/12/02 13:46:48;;;;;;;41.17;17.80;;;;;;;;;;4975624;28;20033;-66
2022/12/02 13:49:14;;;;;;;36.53;16.95;;;;;;;;;;4981123;28;20084;-66
2022/12/02 13:51:39;;;;;;;44.20;17.52;;;;;;;;;;4978736;28;20037;-66
2022/12/02 13:54:04;;;;;;;41.50;18.48;;;;;;;;;;4983998;28;20044;-67
2022/12/02 13:56:30;;;;;;;38.35;16.60;;;;;;;;;;4982996;28;20769;-65
2022/12/02 13:58:57;;;;;;;40.95;18.95;;;;;;;;;;4981470;28;20033;-66
2022/12/02 14:01:23;;;;;;;39.90;17.83;;;;;;;;;;4977631;28;20029;-65
2022/12/02 14:03:49;;;;;;;45.05;18.52;;;;;;;;;;4978687;28;20352;-66
2022/12/02 14:06:14;;;;;;;41.58;18.40;;;;;;;;;;4978970;28;20219;-66
2022/12/02 14:08:39;;;;;;;43.03;18.10;;;;;;;;;;4976057;28;20071;-65
2022/12/02 14:11:05;;;;;;;44.30;19.05;;;;;;;;;;4980173;28;20962;-68
2022/12/02 14:13:30;;;;;;;42.65;18.38;;;;;;;;;;4983546;28;20148;-66
2022/12/02 14:15:56;;;;;;;38.70;18.17;;;;;;;;;;4982953;28;20312;-67
2022/12/02 14:18:21;;;;;;;39.40;18.48;;;;;;;;;;4983170;28;20034;-65